Time;durP1;ratioP1;P1;durP2;ratioP2;P2;SDS_P1;SDS_P2;PMS_P1;PMS_P2;Temp;Humidity;BMP_temperature;BMP_pressure;BME280_temperature;BME280_humidity;BME280_pressure;Samples;Min_cycle;Max_cycle;Signal;HPM_P1;HPM_P2
2022/03/27 00:02:07;;;;;;;13.88;4.80;;;;;;;10.68;100.00;103077.84;5077782;28;20457;-94
2022/03/27 00:04:34;;;;;;;13.75;4.65;;;;;;;10.55;100.00;103040.31;5077486;28;20357;-94
2022/03/27 00:07:01;;;;;;;12.40;4.13;;;;;;;10.73;100.00;103049.91;5078091;28;20048;-94
2022/03/27 00:09:28;;;;;;;13.50;3.55;;;;;;;10.71;100.00;103064.75;5077666;28;20056;-95
2022/03/27 00:11:55;;;;;;;15.60;5.10;;;;;;;10.69;100.00;103083.09;5077793;28;20052;-92
2022/03/27 00:14:21;;;;;;;12.13;4.00;;;;;;;10.45;100.00;103032.47;5076526;28;20049;-94
2022/03/27 00:16:49;;;;;;;10.20;3.40;;;;;;;10.30;100.00;103021.09;5078442;28;20048;-94
2022/03/27 00:19:16;;;;;;;18.67;6.28;;;;;;;10.06;100.00;103062.09;5077168;28;20045;-93
2022/03/27 00:21:44;;;;;;;10.30;3.80;;;;;;;10.41;100.00;103088.34;5075647;28;20044;-93
2022/03/27 00:24:11;;;;;;;15.45;4.82;;;;;;;10.54;100.00;103086.59;5076125;28;20055;-94
2022/03/27 00:26:40;;;;;;;13.65;4.03;;;;;;;10.26;100.00;103030.69;5075851;28;20074;-94
2022/03/27 00:29:07;;;;;;;14.32;3.97;;;;;;;10.57;100.00;103049.94;5075157;28;20504;-93
2022/03/27 00:31:38;;;;;;;16.98;6.82;;;;;;;10.04;100.00;103020.19;5075029;28;20045;-92
2022/03/27 00:34:05;;;;;;;20.10;6.32;;;;;;;10.12;100.00;103051.59;5075077;28;20521;-94
2022/03/27 00:36:32;;;;;;;13.73;5.15;;;;;;;10.14;100.00;103015.84;5075867;28;20542;-93
2022/03/27 00:38:59;;;;;;;11.63;4.55;;;;;;;10.27;100.00;103019.34;5075564;28;20056;-94
2022/03/27 00:41:26;;;;;;;15.15;4.47;;;;;;;10.52;100.00;103054.28;5073361;28;20052;-94
2022/03/27 00:43:53;;;;;;;19.85;5.97;;;;;;;10.15;100.00;103024.59;5075806;28;20070;-94
2022/03/27 00:46:20;;;;;;;17.02;4.78;;;;;;;10.27;100.00;103025.44;5074496;28;20075;-94
2022/03/27 00:48:47;;;;;;;14.35;4.03;;;;;;;10.66;100.00;103079.59;5075494;28;20533;-94
2022/03/27 00:51:14;;;;;;;16.77;5.55;;;;;;;10.24;100.00;103054.25;5075625;28;20048;-93
2022/03/27 00:53:40;;;;;;;21.90;6.72;;;;;;;10.01;100.00;103030.66;5074650;28;20805;-92
2022/03/27 00:56:07;;;;;;;13.68;4.65;;;;;;;10.45;100.00;103057.78;5075619;28;20044;-94
2022/03/27 00:58:34;;;;;;;16.63;5.63;;;;;;;10.27;100.00;103088.28;5075157;28;20139;-92
2022/03/27 01:01:04;;;;;;;22.50;6.35;;;;;;;10.11;100.00;103093.50;5074420;28;20139;-93
2022/03/27 01:03:32;;;;;;;12.07;4.75;;;;;;;10.30;100.00;103053.38;5073428;28;20082;-93
2022/03/27 01:05:59;;;;;;;16.63;7.05;;;;;;;9.82;100.00;103065.50;5074580;28;20375;-92
2022/03/27 01:11:20;;;;;;;19.38;5.57;;;;;;;9.99;100.00;103042.00;5075380;28;20079;-91
2022/03/27 01:13:55;;;;;;;15.75;4.93;;;;;;;10.44;100.00;103084.84;5074066;28;20048;-94
2022/03/27 01:16:33;;;;;;;15.70;5.72;;;;;;;10.02;100.00;103060.31;5075265;28;20045;-94
2022/03/27 01:19:01;;;;;;;17.48;4.70;;;;;;;10.21;100.00;103071.69;5074106;28;20056;-94
2022/03/27 01:21:27;;;;;;;13.32;4.65;;;;;;;10.08;100.00;103073.44;5073849;28;20539;-94
2022/03/27 01:23:55;;;;;;;13.93;4.18;;;;;;;10.25;100.00;103066.47;5074118;28;20044;-93
2022/03/27 01:26:23;;;;;;;15.65;4.47;;;;;;;10.19;100.00;103066.44;5081406;28;20055;-94
2022/03/27 01:28:50;;;;;;;12.27;4.78;;;;;;;10.42;100.00;103068.25;5075714;28;20048;-94
2022/03/27 01:31:19;;;;;;;9.52;3.75;;;;;;;10.34;100.00;103068.25;5074821;28;20482;-93
2022/03/27 01:33:46;;;;;;;15.57;5.72;;;;;;;9.57;100.00;103043.63;5074662;28;20053;-94
2022/03/27 01:36:23;;;;;;;14.88;4.85;;;;;;;10.20;100.00;103038.56;5074803;28;20048;-94
2022/03/27 01:38:53;;;;;;;11.93;4.57;;;;;;;10.08;100.00;103063.81;5061227;28;20567;-94
2022/03/27 01:41:19;;;;;;;11.27;4.03;;;;;;;9.92;100.00;103059.44;5055985;28;20061;-95
2022/03/27 01:43:47;;;;;;;14.00;4.25;;;;;;;9.80;100.00;103033.25;5074599;28;20052;-94
2022/03/27 01:46:14;;;;;;;9.57;3.92;;;;;;;9.98;100.00;103055.97;5074966;28;20132;-94
2022/03/27 01:48:41;;;;;;;9.13;2.95;;;;;;;9.49;100.00;103023.56;5074980;28;20535;-93
2022/03/27 01:51:08;;;;;;;9.65;2.92;;;;;;;9.79;100.00;103052.41;5075286;28;20072;-94
2022/03/27 01:53:37;;;;;;;11.90;3.80;;;;;;;9.73;100.00;103050.66;5073794;28;20048;-94
2022/03/27 01:56:06;;;;;;;7.28;2.30;;;;;;;9.99;100.00;103052.47;5074249;28;20048;-93
2022/03/27 01:58:38;;;;;;;9.93;3.05;;;;;;;9.92;100.00;103050.72;5074010;28;20143;-93
2022/03/27 02:01:07;;;;;;;6.35;2.30;;;;;;;9.90;100.00;103061.19;5074715;28;20134;-92
2022/03/27 02:03:35;;;;;;;9.65;3.13;;;;;;;9.91;100.00;103057.69;5074128;28;20055;-93
2022/03/27 02:06:05;;;;;;;12.80;3.38;;;;;;;9.74;100.00;103051.53;5074659;28;20055;-94
2022/03/27 02:08:35;;;;;;;6.07;2.25;;;;;;;9.79;100.00;103042.84;5075277;28;20052;-94
2022/03/27 02:11:03;;;;;;;8.65;3.05;;;;;;;9.63;100.00;102983.47;5076342;28;20052;-93
2022/03/27 02:13:30;;;;;;;12.40;3.08;;;;;;;9.79;100.00;103039.34;5075346;28;20653;-93
2022/03/27 02:15:58;;;;;;;7.75;2.83;;;;;;;9.79;100.00;103008.84;5074868;28;20131;-93
2022/03/27 02:18:26;;;;;;;7.15;2.65;;;;;;;9.86;100.00;103038.47;5073826;28;20048;-93
2022/03/27 02:20:54;;;;;;;11.50;3.88;;;;;;;9.42;100.00;103027.03;5074537;28;20049;-94
2022/03/27 02:23:25;;;;;;;10.07;2.63;;;;;;;9.38;100.00;103019.16;5070147;28;20049;-93
2022/03/27 02:25:52;;;;;;;7.22;2.40;;;;;;;9.66;100.00;103015.75;5055837;28;20037;-94
2022/03/27 02:28:19;;;;;;;11.43;3.55;;;;;;;9.59;100.00;103019.22;5055008;28;20616;-93
2022/03/27 02:30:49;;;;;;;7.93;2.90;;;;;;;9.64;100.00;103016.63;5054238;28;20049;-93
2022/03/27 02:33:16;;;;;;;11.68;3.78;;;;;;;9.36;100.00;103000.84;5069309;28;20431;-93
2022/03/27 02:35:43;;;;;;;8.25;2.78;;;;;;;9.51;100.00;103013.13;5074620;28;20178;-93
2022/03/27 02:38:10;;;;;;;8.25;2.97;;;;;;;9.38;100.00;102978.19;5075372;28;20080;-92
2022/03/27 02:40:38;;;;;;;8.32;2.80;;;;;;;9.70;100.00;103011.41;5074114;28;20127;-93
2022/03/27 02:43:06;;;;;;;7.72;2.65;;;;;;;9.64;100.00;102999.19;5074108;28;20060;-93
2022/03/27 02:45:33;;;;;;;7.07;2.60;;;;;;;9.73;100.00;103000.09;5073879;28;20044;-93
2022/03/27 02:48:00;;;;;;;7.63;3.10;;;;;;;9.57;100.00;102979.13;5073849;28;20056;-93
2022/03/27 02:50:29;;;;;;;8.75;3.53;;;;;;;9.64;100.00;102978.25;5073721;28;20071;-92
2022/03/27 02:52:57;;;;;;;8.82;3.42;;;;;;;9.83;100.00;102992.25;5072979;28;20051;-93
2022/03/27 02:55:24;;;;;;;19.58;4.13;;;;;;;9.58;100.00;102949.50;5074053;28;20051;-93
2022/03/27 02:57:55;;;;;;;8.93;2.72;;;;;;;9.57;100.00;102931.19;5074372;28;20049;-93
2022/03/27 03:00:22;;;;;;;6.90;2.58;;;;;;;9.45;100.00;102927.66;5075265;28;20461;-92
2022/03/27 03:02:49;;;;;;;8.63;3.58;;;;;;;9.75;100.00;102953.88;5073033;28;20044;-94
2022/03/27 03:05:17;;;;;;;9.60;3.38;;;;;;;9.36;100.00;102963.38;5073397;28;20418;-94
2022/03/27 03:07:44;;;;;;;7.75;3.00;;;;;;;9.67;100.00;102990.50;5074091;28;20048;-93
2022/03/27 03:10:14;;;;;;;8.40;3.05;;;;;;;9.64;100.00;102983.50;5074375;28;20054;-93
2022/03/27 03:12:41;;;;;;;8.35;3.20;;;;;;;9.62;100.00;102971.28;5073319;28;20051;-93
2022/03/27 03:15:09;;;;;;;8.55;2.80;;;;;;;9.83;100.00;102986.16;5073576;28;20048;-94
2022/03/27 03:17:36;;;;;;;16.58;4.78;;;;;;;9.68;100.00;102966.06;5073716;28;20048;-92
2022/03/27 03:20:04;;;;;;;9.30;3.28;;;;;;;9.52;100.00;102983.47;5073142;28;20406;-93
2022/03/27 03:22:31;;;;;;;8.93;2.88;;;;;;;9.35;100.00;102951.16;5068783;28;20041;-93
2022/03/27 03:24:58;;;;;;;13.60;3.97;;;;;;;9.25;100.00;102963.34;5062042;28;20623;-94
2022/03/27 03:27:25;;;;;;;8.52;3.30;;;;;;;8.96;100.00;102961.50;5073754;28;20062;-94
2022/03/27 03:29:52;;;;;;;10.05;3.00;;;;;;;9.28;100.00;102958.13;5074325;28;20052;-93
2022/03/27 03:32:22;;;;;;;10.65;3.03;;;;;;;9.37;100.00;102954.69;5072791;28;20401;-93
2022/03/27 03:34:49;;;;;;;7.50;2.72;;;;;;;9.30;100.00;102925.03;5073480;28;20070;-94
2022/03/27 03:37:17;;;;;;;8.40;2.70;;;;;;;9.56;100.00;102979.09;5073200;28;20057;-94
2022/03/27 03:39:45;;;;;;;8.07;3.13;;;;;;;9.69;100.00;102975.66;5069065;28;20044;-93
2022/03/27 03:42:13;;;;;;;10.90;3.03;;;;;;;9.13;100.00;102938.03;5060828;28;20084;-93
2022/03/27 03:44:41;;;;;;;7.25;2.40;;;;;;;9.06;100.00;102939.72;5073034;28;20083;-93
2022/03/27 03:47:09;;;;;;;9.85;2.92;;;;;;;8.82;100.00;102903.03;5074111;28;20113;-94
2022/03/27 03:49:37;;;;;;;10.90;3.03;;;;;;;8.82;100.00;102937.00;5069648;28;20136;-92
2022/03/27 03:52:06;;;;;;;9.02;3.20;;;;;;;9.23;100.00;102942.41;5059177;28;20033;-93
2022/03/27 03:54:36;;;;;;;11.07;3.25;;;;;;;9.05;100.00;102931.91;5073137;28;20120;-93
2022/03/27 03:57:05;;;;;;;7.18;2.70;;;;;;;8.76;100.00;102927.41;5073034;28;20406;-93
2022/03/27 03:59:36;;;;;;;8.00;2.58;;;;;;;8.71;100.00;102903.91;5072259;28;20058;-93
2022/03/27 04:02:08;;;;;;;16.15;3.38;;;;;;;8.58;100.00;102920.34;5071628;28;20127;-93
2022/03/27 04:04:35;;;;;;;10.30;2.83;;;;;;;8.64;100.00;102925.63;5074158;28;20040;-94
2022/03/27 04:07:04;;;;;;;13.60;3.72;;;;;;;8.60;100.00;102938.66;5073012;28;20045;-93
2022/03/27 04:09:31;;;;;;;29.95;4.00;;;;;;;8.45;100.00;102926.38;5072303;28;20131;-93
2022/03/27 04:11:58;;;;;;;13.82;3.78;;;;;;;8.60;100.00;102933.44;5072137;28;20052;-94
2022/03/27 04:14:26;;;;;;;15.63;3.92;;;;;;;8.54;100.00;102960.38;5072475;28;20139;-93
2022/03/27 04:16:52;;;;;;;17.05;4.15;;;;;;;8.39;100.00;102940.22;5076272;28;20076;-92
2022/03/27 04:19:19;;;;;;;13.00;3.85;;;;;;;8.81;100.00;102954.44;5077573;28;20090;-93
2022/03/27 04:21:46;;;;;;;18.73;3.90;;;;;;;8.73;100.00;102949.19;5075780;28;20049;-92
2022/03/27 04:24:13;;;;;;;11.05;3.08;;;;;;;8.59;100.00;102919.50;5077075;28;20139;-92
2022/03/27 04:26:40;;;;;;;22.30;4.30;;;;;;;8.39;100.00;102927.16;5076213;28;20062;-93
2022/03/27 04:29:10;;;;;;;18.42;4.55;;;;;;;8.05;100.00;102915.63;5075955;28;20059;-94
2022/03/27 04:31:39;;;;;;;22.90;4.53;;;;;;;8.07;100.00;102933.00;5076223;28;20099;-93
2022/03/27 04:34:05;;;;;;;18.05;3.97;;;;;;;8.36;100.00;102941.06;5075355;28;20088;-92
2022/03/27 04:36:32;;;;;;;15.20;3.70;;;;;;;8.36;100.00;102914.09;5077522;28;20040;-92
2022/03/27 04:38:59;;;;;;;45.20;7.57;;;;;;;7.88;100.00;102882.44;5060021;28;20053;-92
2022/03/27 04:41:26;;;;;;;45.10;5.60;;;;;;;7.99;100.00;102922.53;5070490;28;20057;-92
2022/03/27 04:43:53;;;;;;;7.65;3.28;;;;;;;8.24;100.00;102904.44;5075298;28;20162;-92
2022/03/27 04:46:19;;;;;;;11.25;4.00;;;;;;;8.42;100.00;102936.75;5076320;28;20048;-92
2022/03/27 04:48:46;;;;;;;19.42;4.43;;;;;;;8.33;100.00;102937.56;5076092;28;20127;-93
2022/03/27 04:51:13;;;;;;;18.52;4.63;;;;;;;8.58;100.00;102929.94;5075348;28;20451;-93
2022/03/27 04:53:40;;;;;;;11.80;3.90;;;;;;;8.72;100.00;102952.63;5075955;28;20099;-92
2022/03/27 04:56:07;;;;;;;17.77;3.92;;;;;;;8.60;100.00;102939.50;5075126;28;20068;-93
2022/03/27 04:58:35;;;;;;;23.25;4.55;;;;;;;8.48;100.00;102942.03;5076498;28;20135;-92
2022/03/27 05:01:03;;;;;;;11.02;3.65;;;;;;;8.17;100.00;102911.34;5075415;28;20058;-92
2022/03/27 05:03:30;;;;;;;6.95;2.97;;;;;;;8.50;100.00;102911.63;5073856;28;20074;-92
2022/03/27 05:05:57;;;;;;;11.65;3.67;;;;;;;8.36;100.00;102888.88;5074760;28;20048;-89
2022/03/27 05:08:24;;;;;;;18.75;4.45;;;;;;;8.30;100.00;102925.34;5063514;28;20053;-88
2022/03/27 05:10:51;;;;;;;14.65;4.63;;;;;;;8.38;100.00;102928.03;5067646;28;20475;-87
2022/03/27 05:13:18;;;;;;;25.10;5.38;;;;;;;8.49;100.00;102925.53;5073068;28;20048;-88
2022/03/27 05:15:45;;;;;;;11.13;3.50;;;;;;;8.49;100.00;102896.81;5073441;28;20273;-88
2022/03/27 05:18:12;;;;;;;17.40;4.55;;;;;;;8.44;100.00;102899.38;5075691;28;20063;-94
2022/03/27 05:20:41;;;;;;;16.15;4.30;;;;;;;8.44;100.00;102925.47;5076517;28;20048;-93
2022/03/27 05:23:08;;;;;;;30.30;4.90;;;;;;;7.87;100.00;102869.41;5076938;28;20413;-93
2022/03/27 05:25:45;;;;;;;84.15;8.63;;;;;;;7.96;100.00;102909.44;5076492;28;20152;-95
2022/03/27 05:28:16;;;;;;;24.33;4.85;;;;;;;7.84;100.00;102879.78;5074478;28;20041;-94
2022/03/27 05:30:43;;;;;;;28.10;5.38;;;;;;;7.99;100.00;102896.44;5075343;28;20056;-93
2022/03/27 05:33:10;;;;;;;12.10;4.05;;;;;;;7.94;100.00;102908.56;5073404;28;20053;-92
2022/03/27 05:35:37;;;;;;;17.55;4.93;;;;;;;8.32;100.00;102908.00;5073809;28;20139;-92
2022/03/27 05:38:05;;;;;;;35.35;6.68;;;;;;;8.11;100.00;102893.06;5075557;28;20068;-94
2022/03/27 05:40:32;;;;;;;17.73;3.65;;;;;;;8.45;100.00;102910.72;5074270;28;20475;-94
2022/03/27 05:42:59;;;;;;;20.40;4.53;;;;;;;8.37;100.00;102915.84;5073213;28;20051;-94
2022/03/27 05:45:27;;;;;;;26.98;5.75;;;;;;;8.38;100.00;102896.72;5073394;28;20059;-94
2022/03/27 05:47:54;;;;;;;16.33;3.88;;;;;;;8.25;100.00;102866.16;5074082;28;20044;-94
2022/03/27 05:50:22;;;;;;;15.13;4.68;;;;;;;7.68;100.00;102866.63;5069870;28;20041;-93
2022/03/27 05:52:53;;;;;;;9.57;4.07;;;;;;;8.55;100.00;102912.50;5065141;28;20105;-95
2022/03/27 05:55:22;;;;;;;19.70;5.78;;;;;;;8.02;100.00;102879.97;5074020;28;20147;-93
2022/03/27 05:57:49;;;;;;;10.60;4.13;;;;;;;8.39;100.00;102908.03;5067765;28;20045;-93
2022/03/27 06:00:20;;;;;;;18.63;4.68;;;;;;;8.48;100.00;102900.28;5053986;28;20088;-92
2022/03/27 06:02:51;;;;;;;13.50;4.20;;;;;;;8.40;100.00;102896.72;5069180;28;20048;-93
2022/03/27 06:05:23;;;;;;;11.63;4.60;;;;;;;8.51;100.00;102898.53;5074912;28;20071;-93
2022/03/27 06:07:53;;;;;;;10.63;3.67;;;;;;;8.27;100.00;102901.88;5073762;28;20054;-93
2022/03/27 06:10:25;;;;;;;9.15;3.90;;;;;;;8.43;100.00;102894.16;5071663;28;20045;-93
2022/03/27 06:12:53;;;;;;;16.08;3.80;;;;;;;8.51;100.00;102892.47;5074340;28;20557;-93
2022/03/27 06:15:21;;;;;;;10.32;4.00;;;;;;;8.73;100.00;102901.28;5074373;28;20469;-94
2022/03/27 06:17:50;;;;;;;30.02;6.15;;;;;;;7.85;100.00;102863.31;5073787;28;20040;-93
2022/03/27 06:20:19;;;;;;;12.85;4.60;;;;;;;7.90;100.00;102869.44;5072885;28;20099;-94
2022/03/27 06:22:46;;;;;;;13.52;4.55;;;;;;;8.44;100.00;102907.22;5072536;28;20488;-93
2022/03/27 06:25:16;;;;;;;10.60;4.57;;;;;;;8.43;100.00;102899.38;5073119;28;20080;-93
2022/03/27 06:27:43;;;;;;;14.88;4.00;;;;;;;8.10;100.00;102870.44;5072444;28;20047;-91
2022/03/27 06:30:13;;;;;;;18.02;3.85;;;;;;;8.04;100.00;102875.63;5089334;28;20470;-91
2022/03/27 06:32:39;;;;;;;12.73;3.70;;;;;;;7.70;100.00;102897.94;5071594;28;20045;-91
2022/03/27 06:35:07;;;;;;;8.75;3.53;;;;;;;7.95;100.00;102884.25;5052439;28;20824;-90
2022/03/27 06:37:34;;;;;;;16.98;4.57;;;;;;;7.96;100.00;102905.97;5056213;28;20398;-91
2022/03/27 06:40:02;;;;;;;32.53;6.95;;;;;;;7.71;100.00;102900.56;5067730;28;20049;-91
2022/03/27 06:42:29;;;;;;;8.95;3.63;;;;;;;8.07;100.00;102893.00;5060090;28;20151;-90
2022/03/27 06:44:59;;;;;;;15.23;4.10;;;;;;;8.18;100.00;102879.19;5072376;28;20048;-91
2022/03/27 06:47:27;;;;;;;7.15;2.90;;;;;;;8.22;100.00;102877.47;5072475;28;20049;-91
2022/03/27 06:49:56;;;;;;;20.67;4.97;;;;;;;8.22;100.00;102900.09;5071832;28;20044;-91
2022/03/27 06:52:26;;;;;;;11.43;3.60;;;;;;;8.41;100.00;102899.34;5069751;28;20051;-91
2022/03/27 06:54:54;;;;;;;21.50;5.28;;;;;;;7.97;100.00;102877.31;5072046;28;20078;-91
2022/03/27 06:57:21;;;;;;;12.25;4.50;;;;;;;8.34;100.00;102871.47;5072490;28;20051;-90
2022/03/27 07:05:22;;;;;;;10.95;4.30;;;;;;;8.23;100.00;102866.16;5072085;28;20143;-90
2022/03/27 07:07:52;;;;;;;9.10;3.95;;;;;;;8.30;100.00;102859.25;5072283;28;20071;-91
2022/03/27 07:10:19;;;;;;;11.63;5.00;;;;;;;8.49;100.00;102870.69;5072371;28;20048;-91
2022/03/27 07:12:47;;;;;;;7.95;3.50;;;;;;;8.65;100.00;102874.25;5071843;28;20514;-91
2022/03/27 07:15:15;;;;;;;7.78;3.08;;;;;;;8.73;100.00;102864.72;5072080;28;20695;-91
2022/03/27 07:17:48;;;;;;;12.98;4.15;;;;;;;8.70;100.00;102856.88;5054617;28;20398;-90
2022/03/27 07:20:26;;;;;;;11.07;3.65;;;;;;;8.81;100.00;102856.91;5071583;28;20044;-91
2022/03/27 07:22:54;;;;;;;10.25;3.42;;;;;;;9.06;100.00;102853.50;5070679;28;20551;-91
2022/03/27 07:25:22;;;;;;;8.00;3.45;;;;;;;9.15;100.00;102862.25;5073025;28;20485;-91
2022/03/27 07:27:49;;;;;;;13.23;4.20;;;;;;;9.10;100.00;102855.28;5071974;28;20132;-91
2022/03/27 07:30:16;;;;;;;11.15;5.65;;;;;;;8.75;100.00;102849.94;5071624;28;20074;-91
2022/03/27 07:32:44;;;;;;;8.40;3.30;;;;;;;8.76;100.00;102850.78;5071880;28;20479;-91
2022/03/27 07:35:14;;;;;;;11.45;3.42;;;;;;;8.92;100.00;102848.25;5071138;28;20048;-91
2022/03/27 07:37:43;;;;;;;7.05;2.97;;;;;;;9.27;100.00;102852.66;5066752;28;20055;-91
2022/03/27 07:40:12;;;;;;;9.60;3.15;;;;;;;9.46;100.00;102837.03;5054304;28;20056;-90
2022/03/27 07:42:42;;;;;;;8.60;3.00;;;;;;;9.43;100.00;102850.09;5077313;28;20466;-91
2022/03/27 07:45:09;;;;;;;8.13;3.60;;;;;;;9.51;100.00;102858.81;5071452;28;20131;-90
2022/03/27 07:47:37;;;;;;;10.55;3.88;;;;;;;9.55;100.00;102864.94;5071477;28;20041;-91
2022/03/27 07:50:07;;;;;;;7.78;3.60;;;;;;;9.45;100.00;102859.66;5072051;28;20405;-90
2022/03/27 07:52:35;;;;;;;7.93;3.30;;;;;;;9.89;100.00;102858.78;5074287;28;20080;-90
2022/03/27 07:55:03;;;;;;;8.98;3.45;;;;;;;9.64;100.00;102859.69;5071143;28;20053;-90
2022/03/27 07:57:30;;;;;;;8.77;3.28;;;;;;;9.61;100.00;102857.94;5074267;28;20059;-91
2022/03/27 07:59:57;;;;;;;8.60;3.38;;;;;;;9.80;100.00;102850.09;5074958;28;20063;-91
2022/03/27 08:02:24;;;;;;;7.45;2.97;;;;;;;9.98;100.00;102854.44;5075253;28;20048;-90
2022/03/27 08:04:52;;;;;;;7.47;2.80;;;;;;;10.16;100.00;102854.41;5075059;28;20486;-91
2022/03/27 08:07:19;;;;;;;8.68;3.88;;;;;;;10.01;100.00;102851.81;5073362;28;20510;-90
2022/03/27 08:09:46;;;;;;;7.97;3.38;;;;;;;9.98;100.00;102860.53;5073865;28;21069;-90
2022/03/27 08:12:13;;;;;;;8.25;3.17;;;;;;;10.06;100.00;102860.53;5074102;28;20072;-90
2022/03/27 08:14:40;;;;;;;6.97;3.10;;;;;;;10.16;100.00;102845.69;5076119;28;20072;-89
2022/03/27 08:17:07;;;;;;;7.45;3.20;;;;;;;10.25;100.00;102857.03;5070866;28;20052;-90
2022/03/27 08:19:34;;;;;;;7.55;3.33;;;;;;;10.48;100.00;102853.47;5072342;28;20048;-89
2022/03/27 08:22:01;;;;;;;8.73;3.58;;;;;;;10.34;100.00;102864.00;5075189;28;20474;-88
2022/03/27 08:24:28;;;;;;;10.73;5.13;;;;;;;10.42;100.00;102858.75;5072147;28;20068;-89
2022/03/27 08:26:55;;;;;;;9.23;3.95;;;;;;;10.96;100.00;102853.25;5073669;28;20041;-89
2022/03/27 08:29:29;;;;;;;8.38;3.50;;;;;;;11.20;100.00;102833.91;5075739;28;20146;-89
2022/03/27 08:32:00;;;;;;;7.30;2.97;;;;;;;11.34;100.00;102857.41;5073044;28;20045;-89
2022/03/27 08:34:30;;;;;;;8.57;3.47;;;;;;;10.42;100.00;102848.28;5065331;28;20607;-89
2022/03/27 08:36:58;;;;;;;8.77;3.92;;;;;;;10.55;100.00;102859.56;5068904;28;20658;-90
2022/03/27 08:39:25;;;;;;;8.45;4.03;;;;;;;11.07;100.00;102850.63;5071957;28;20719;-90
2022/03/27 08:41:54;;;;;;;9.18;4.30;;;;;;;11.41;100.00;102830.25;5067004;28;20151;-89
2022/03/27 08:44:24;;;;;;;9.77;4.57;;;;;;;11.71;100.00;102841.41;5075092;28;20114;-90
2022/03/27 08:46:53;;;;;;;9.50;4.40;;;;;;;11.78;100.00;102850.94;5064416;28;20052;-89
2022/03/27 08:49:26;;;;;;;7.40;2.95;;;;;;;12.46;100.00;102852.91;5070399;28;20505;-87
2022/03/27 08:52:21;;;;;;;8.68;3.95;;;;;;;11.83;100.00;102853.50;5071913;28;20080;-90
2022/03/27 08:55:12;;;;;;;11.95;5.80;;;;;;;11.09;100.00;102862.81;5069503;28;20045;-89
2022/03/27 08:58:03;;;;;;;14.13;6.75;;;;;;;11.23;100.00;102857.50;5072557;28;20048;-89
2022/03/27 09:00:33;;;;;;;15.50;7.95;;;;;;;11.20;100.00;102857.50;5074814;28;20044;-89
2022/03/27 09:03:03;;;;;;;12.68;5.78;;;;;;;11.78;100.00;102836.06;5072361;28;20051;-89
2022/03/27 09:05:33;;;;;;;13.15;5.63;;;;;;;12.68;100.00;102856.16;5073225;28;20036;-89
2022/03/27 09:08:09;;;;;;;13.13;6.47;;;;;;;12.93;100.00;102846.19;5069869;28;20071;-88
2022/03/27 09:10:40;;;;;;;11.35;5.15;;;;;;;13.01;100.00;102853.97;5064422;28;20068;-88
2022/03/27 09:13:16;;;;;;;12.75;6.78;;;;;;;12.32;100.00;102834.66;5071960;28;20121;-89
2022/03/27 09:15:44;;;;;;;15.75;7.35;;;;;;;11.74;100.00;102838.75;5074269;28;20055;-89
2022/03/27 09:18:15;;;;;;;11.73;5.70;;;;;;;13.17;100.00;102839.69;5074539;28;20048;-88
2022/03/27 09:20:46;;;;;;;12.75;5.85;;;;;;;12.91;100.00;102847.97;5069290;28;20376;-89
2022/03/27 09:23:26;;;;;;;18.85;8.00;;;;;;;12.85;100.00;102835.75;5060419;28;20106;-89
2022/03/27 09:25:59;;;;;;;10.45;4.38;;;;;;;13.58;100.00;102834.69;5073296;28;20048;-89
2022/03/27 09:28:28;;;;;;;11.85;5.05;;;;;;;13.90;100.00;102830.63;5065641;28;20063;-88
2022/03/27 09:31:01;;;;;;;17.13;5.68;;;;;;;13.53;100.00;102823.38;5069550;28;20131;-89
2022/03/27 09:33:46;;;;;;;16.33;7.78;;;;;;;12.76;100.00;102833.25;5066124;28;20076;-89
2022/03/27 09:36:21;;;;;;;12.45;5.72;;;;;;;13.38;100.00;102827.13;5065435;28;20049;-88
2022/03/27 09:39:11;;;;;;;10.40;4.75;;;;;;;13.65;100.00;102816.16;5073410;28;20044;-90
2022/03/27 09:41:54;;;;;;;12.73;6.68;;;;;;;13.75;100.00;102816.84;5072618;28;20080;-90
2022/03/27 09:44:29;;;;;;;11.88;5.03;;;;;;;13.47;100.00;102817.34;5053793;28;20053;-89
2022/03/27 09:47:00;;;;;;;11.80;4.93;;;;;;;13.84;100.00;102818.44;5053719;28;20505;-90
2022/03/27 09:49:35;;;;;;;13.13;6.38;;;;;;;13.83;100.00;102816.72;5069560;28;20041;-89
2022/03/27 09:52:10;;;;;;;9.40;3.80;;;;;;;14.27;100.00;102812.38;5054271;28;20055;-89
2022/03/27 09:54:52;;;;;;;12.77;5.80;;;;;;;13.68;100.00;102818.72;5072392;28;20048;-89
2022/03/27 09:57:30;;;;;;;11.55;4.72;;;;;;;14.08;100.00;102788.16;5073028;28;20044;-89
2022/03/27 10:00:19;;;;;;;12.68;5.90;;;;;;;14.50;100.00;102811.03;5067215;28;20497;-89
2022/03/27 10:02:51;;;;;;;15.25;5.80;;;;;;;13.65;100.00;102803.00;5067181;28;20131;-87
2022/03/27 10:05:20;;;;;;;15.40;6.45;;;;;;;13.70;100.00;102807.31;5068935;28;20132;-89
2022/03/27 10:07:52;;;;;;;10.70;4.53;;;;;;;14.46;100.00;102783.84;5080297;28;20438;-88
2022/03/27 10:10:25;;;;;;;11.80;5.90;;;;;;;14.41;100.00;102798.91;5072209;28;20057;-89
2022/03/27 10:12:54;;;;;;;14.75;7.03;;;;;;;14.08;100.00;102801.34;5069715;28;20286;-89
2022/03/27 10:15:24;;;;;;;17.20;7.38;;;;;;;13.82;100.00;102792.16;5066118;28;20045;-90
2022/03/27 10:18:06;;;;;;;12.43;5.30;;;;;;;13.89;100.00;102792.06;5063639;28;20052;-90
2022/03/27 10:20:38;;;;;;;13.13;6.05;;;;;;;14.33;100.00;102774.50;5058656;28;20080;-91
2022/03/27 10:23:07;;;;;;;9.85;4.55;;;;;;;14.69;100.00;102775.47;5067310;28;20486;-90
2022/03/27 10:25:41;;;;;;;11.73;4.97;;;;;;;14.41;100.00;102781.34;5073637;28;20080;-90
2022/03/27 10:28:08;;;;;;;10.50;4.35;;;;;;;14.23;100.00;102729.00;5073458;28;20132;-88
2022/03/27 10:30:35;;;;;;;13.80;6.07;;;;;;;14.40;100.00;102713.72;5074430;28;20070;-91
2022/03/27 10:33:03;;;;;;;10.90;4.13;;;;;;;14.74;100.00;102746.38;5079466;28;20158;-91
2022/03/27 10:35:35;;;;;;;8.73;3.53;;;;;;;15.27;100.00;102772.38;5072764;28;20055;-90
2022/03/27 10:38:38;;;;;;;9.40;4.15;;;;;;;14.86;100.00;102772.47;5073716;28;20055;-87
2022/03/27 10:41:24;;;;;;;8.68;4.35;;;;;;;15.25;100.00;102768.94;5076182;28;20075;-91
2022/03/27 10:43:58;;;;;;;11.45;5.20;;;;;;;15.02;100.00;102769.50;5066875;28;20051;-91
2022/03/27 10:46:37;;;;;;;16.75;5.78;;;;;;;15.09;100.00;102771.06;5072801;28;20076;-91
2022/03/27 10:49:17;;;;;;;11.07;4.63;;;;;;;15.24;100.00;102727.59;5075417;28;20506;-90
2022/03/27 10:51:46;;;;;;;14.32;5.95;;;;;;;14.79;100.00;102755.06;5074720;28;20051;-91
2022/03/27 10:54:16;;;;;;;11.75;5.32;;;;;;;15.29;100.00;102754.75;5075428;28;20045;-91
2022/03/27 10:56:52;;;;;;;11.40;4.65;;;;;;;15.41;100.00;102759.69;5075503;28;20450;-90
2022/03/27 10:59:20;;;;;;;11.40;5.18;;;;;;;15.30;100.00;102759.97;5074410;28;20079;-90
2022/03/27 11:01:56;;;;;;;10.90;4.65;;;;;;;15.34;100.00;102723.81;5073817;28;20482;-91
2022/03/27 11:04:38;;;;;;;10.50;4.80;;;;;;;15.49;100.00;102722.53;5074841;28;20056;-90
2022/03/27 11:07:21;;;;;;;11.23;4.15;;;;;;;15.79;100.00;102710.28;5075293;28;20410;-91
2022/03/27 11:09:48;;;;;;;14.57;5.18;;;;;;;15.18;100.00;102747.94;5076401;28;20044;-91
2022/03/27 11:12:31;;;;;;;13.18;6.32;;;;;;;15.47;100.00;102738.41;5076840;28;20131;-91
2022/03/27 11:15:00;;;;;;;11.75;4.70;;;;;;;15.79;100.00;102701.53;5076050;28;20054;-91
2022/03/27 11:17:40;;;;;;;11.00;5.18;;;;;;;15.59;100.00;102741.66;5074052;28;20453;-89
2022/03/27 11:20:07;;;;;;;10.30;4.50;;;;;;;15.61;100.00;102735.41;5073402;28;20497;-90
2022/03/27 11:22:51;;;;;;;12.48;5.10;;;;;;;15.51;100.00;102733.91;5066944;28;20121;-90
2022/03/27 11:25:25;;;;;;;12.00;4.70;;;;;;;15.84;100.00;102732.16;5052724;28;20092;-88
2022/03/27 11:27:52;;;;;;;15.27;4.88;;;;;;;15.61;100.00;102737.19;5053055;28;20085;-89
2022/03/27 11:30:19;;;;;;;12.90;4.97;;;;;;;15.60;100.00;102685.28;5052626;28;20045;-90
2022/03/27 11:33:11;;;;;;;11.02;3.95;;;;;;;15.81;100.00;102727.00;5061278;28;20055;-90
2022/03/27 11:35:40;;;;;;;10.93;3.67;;;;;;;15.78;100.00;102697.16;5075107;28;20129;-93
2022/03/27 11:38:26;;;;;;;10.18;4.00;;;;;;;16.42;100.00;102713.75;5074558;28;20044;-92